Time;durP1;ratioP1;P1;durP2;ratioP2;P2;SDS_P1;SDS_P2;PMS_P1;PMS_P2;Temp;Humidity;BMP_temperature;BMP_pressure;BME280_temperature;BME280_humidity;BME280_pressure;Samples;Min_cycle;Max_cycle;Signal;HPM_P1;HPM_P2
2022/06/30 00:00:37;;;;;;;9.93;3.38;;;;;;;;;;5026426;28;20066;-49
2022/06/30 00:03:02;;;;;;;10.95;3.17;;;;;;;;;;5026116;28;20026;-52
2022/06/30 00:05:28;;;;;;;9.68;3.05;;;;;;;;;;5025555;28;20053;-47
2022/06/30 00:07:54;;;;;;;11.60;3.42;;;;;;;;;;5025338;28;20040;-48
2022/06/30 00:10:20;;;;;;;12.25;3.28;;;;;;;;;;5026778;28;20048;-49
2022/06/30 00:12:46;;;;;;;7.05;2.80;;;;;;;;;;5026669;28;20029;-50
2022/06/30 00:15:12;;;;;;;9.73;3.15;;;;;;;;;;5028044;28;20394;-50
2022/06/30 00:17:37;;;;;;;11.63;3.78;;;;;;;;;;5023454;28;20037;-45
2022/06/30 00:20:04;;;;;;;9.25;3.30;;;;;;;;;;5027101;28;20025;-45
2022/06/30 00:22:29;;;;;;;13.70;3.53;;;;;;;;;;5026220;28;20025;-52
2022/06/30 00:24:55;;;;;;;10.70;2.95;;;;;;;;;;5027295;28;20060;-50
2022/06/30 00:27:21;;;;;;;9.52;3.25;;;;;;;;;;5028040;28;20367;-45
2022/06/30 00:29:47;;;;;;;7.93;3.28;;;;;;;;;;5026594;28;20033;-45
2022/06/30 00:32:12;;;;;;;13.52;3.10;;;;;;;;;;5024899;28;20028;-48
2022/06/30 00:34:38;;;;;;;11.05;3.15;;;;;;;;;;5025755;28;20620;-44
2022/06/30 00:37:04;;;;;;;10.23;2.70;;;;;;;;;;5024551;28;20029;-45
2022/06/30 00:39:30;;;;;;;10.45;3.92;;;;;;;;;;5025010;28;20032;-46
2022/06/30 00:41:56;;;;;;;10.85;3.20;;;;;;;;;;5025409;28;20033;-46
2022/06/30 00:44:22;;;;;;;9.98;2.83;;;;;;;;;;5024556;28;20033;-51
2022/06/30 00:46:48;;;;;;;7.90;3.63;;;;;;;;;;5025180;28;20032;-48
2022/06/30 00:49:14;;;;;;;5.97;3.38;;;;;;;;;;5026641;28;20025;-49
2022/06/30 00:51:39;;;;;;;9.43;3.05;;;;;;;;;;5027275;28;20393;-50
2022/06/30 00:54:06;;;;;;;10.95;3.20;;;;;;;;;;5025195;28;20084;-47
2022/06/30 00:56:33;;;;;;;14.45;3.78;;;;;;;;;;5023795;28;20065;-46
2022/06/30 00:59:04;;;;;;;9.38;3.28;;;;;;;;;;5025089;28;20053;-48
2022/06/30 01:01:32;;;;;;;6.38;3.13;;;;;;;;;;5025106;28;20044;-47
2022/06/30 01:03:59;;;;;;;8.25;3.30;;;;;;;;;;5025806;28;20076;-45
2022/06/30 01:06:26;;;;;;;6.65;2.72;;;;;;;;;;5027861;28;20038;-48
2022/06/30 01:08:52;;;;;;;10.75;3.72;;;;;;;;;;5022601;28;20037;-45
2022/06/30 01:14:03;;;;;;;13.40;3.90;;;;;;;;;;5025072;28;20021;-51
2022/06/30 01:16:29;;;;;;;9.85;3.53;;;;;;;;;;5025754;28;20088;-45
2022/06/30 01:18:55;;;;;;;4.25;3.38;;;;;;;;;;5025321;28;20045;-49
2022/06/30 01:21:21;;;;;;;8.30;3.40;;;;;;;;;;5024811;28;20437;-47
2022/06/30 01:23:46;;;;;;;7.15;3.10;;;;;;;;;;5024007;28;20122;-46
2022/06/30 01:26:12;;;;;;;7.38;3.08;;;;;;;;;;5023480;28;20514;-45
2022/06/30 01:28:38;;;;;;;12.43;3.10;;;;;;;;;;5026423;28;20026;-45
2022/06/30 01:31:03;;;;;;;13.38;3.25;;;;;;;;;;5025832;28;20029;-44
2022/06/30 01:33:30;;;;;;;8.57;3.30;;;;;;;;;;5026759;28;20087;-48
2022/06/30 01:35:56;;;;;;;10.80;3.45;;;;;;;;;;5025736;28;20034;-50
2022/06/30 01:38:22;;;;;;;9.70;3.03;;;;;;;;;;5025204;28;20135;-50
2022/06/30 01:40:48;;;;;;;15.23;3.65;;;;;;;;;;5024924;28;20068;-45
2022/06/30 01:43:14;;;;;;;9.57;3.80;;;;;;;;;;5022878;28;20033;-49
2022/06/30 01:45:41;;;;;;;9.02;3.33;;;;;;;;;;5026226;28;20034;-51
2022/06/30 01:48:07;;;;;;;15.52;3.08;;;;;;;;;;5027790;28;20029;-48
2022/06/30 01:50:33;;;;;;;8.30;3.55;;;;;;;;;;5029603;28;20032;-50
2022/06/30 01:53:00;;;;;;;20.13;3.92;;;;;;;;;;5026822;28;20041;-50
2022/06/30 01:55:27;;;;;;;10.63;3.30;;;;;;;;;;5026565;28;20057;-47
2022/06/30 01:57:53;;;;;;;11.70;3.97;;;;;;;;;;5028718;28;20056;-48
2022/06/30 02:00:21;;;;;;;8.95;3.30;;;;;;;;;;5031080;28;20033;-53
2022/06/30 02:02:50;;;;;;;6.95;3.50;;;;;;;;;;5025655;28;20034;-48
2022/06/30 02:05:16;;;;;;;10.07;3.00;;;;;;;;;;5028150;28;20466;-47
2022/06/30 02:07:44;;;;;;;8.43;2.97;;;;;;;;;;5027333;28;20092;-45
2022/06/30 02:10:14;;;;;;;14.85;3.20;;;;;;;;;;5029768;28;20037;-45
2022/06/30 02:12:47;;;;;;;8.45;3.03;;;;;;;;;;5028259;28;20044;-48
2022/06/30 02:15:22;;;;;;;;;;;;;;;;;;5030508;28;20029;-45
2022/06/30 02:17:51;;;;;;;13.63;3.70;;;;;;;;;;5029271;28;19916;-44
2022/06/30 02:20:21;;;;;;;11.30;4.00;;;;;;;;;;5028540;28;20032;-45
2022/06/30 02:22:50;;;;;;;9.30;3.33;;;;;;;;;;5027381;28;20040;-51
2022/06/30 02:25:16;;;;;;;7.45;3.03;;;;;;;;;;5028976;28;20033;-54
2022/06/30 02:27:42;;;;;;;9.05;3.17;;;;;;;;;;5029895;28;20116;-53
2022/06/30 02:30:09;;;;;;;9.88;3.63;;;;;;;;;;5028240;28;20037;-49
2022/06/30 02:32:35;;;;;;;6.38;3.10;;;;;;;;;;5025206;28;20029;-49
2022/06/30 02:35:00;;;;;;;13.07;3.78;;;;;;;;;;5029273;28;20030;-46
2022/06/30 02:37:26;;;;;;;10.02;3.25;;;;;;;;;;5026841;28;20055;-47
2022/06/30 02:39:52;;;;;;;13.80;3.45;;;;;;;;;;5029610;28;20497;-48
2022/06/30 02:42:18;;;;;;;12.73;3.53;;;;;;;;;;5029302;28;20681;-48
2022/06/30 02:44:44;;;;;;;8.15;3.60;;;;;;;;;;5027819;28;20025;-47
2022/06/30 02:47:09;;;;;;;6.93;3.08;;;;;;;;;;5028836;28;20025;-50
2022/06/30 02:49:37;;;;;;;12.75;3.15;;;;;;;;;;5028335;28;20477;-50
2022/06/30 02:52:03;;;;;;;10.00;2.92;;;;;;;;;;5026856;28;20104;-52
2022/06/30 02:54:29;;;;;;;7.78;3.33;;;;;;;;;;5027472;28;20478;-48
2022/06/30 02:56:54;;;;;;;11.35;3.30;;;;;;;;;;5026190;28;20095;-47
2022/06/30 02:59:20;;;;;;;7.90;3.60;;;;;;;;;;5028019;28;20508;-44
2022/06/30 03:01:46;;;;;;;8.73;3.33;;;;;;;;;;5026656;28;20021;-46
2022/06/30 03:04:11;;;;;;;9.80;3.05;;;;;;;;;;5025946;28;20033;-45
2022/06/30 03:06:37;;;;;;;14.07;3.78;;;;;;;;;;5028945;28;20033;-53
2022/06/30 03:09:04;;;;;;;8.10;3.40;;;;;;;;;;5027138;28;20621;-50
2022/06/30 03:11:30;;;;;;;10.27;4.05;;;;;;;;;;5027572;28;20060;-49
2022/06/30 03:13:56;;;;;;;9.52;2.78;;;;;;;;;;5026911;28;20033;-50
2022/06/30 03:16:21;;;;;;;8.93;3.28;;;;;;;;;;5026675;28;20034;-51
2022/06/30 03:18:47;;;;;;;9.85;3.30;;;;;;;;;;5027820;28;20060;-49
2022/06/30 03:21:13;;;;;;;10.38;3.67;;;;;;;;;;5028897;28;20025;-52
2022/06/30 03:23:39;;;;;;;12.20;3.17;;;;;;;;;;5025979;28;20030;-52
2022/06/30 03:26:05;;;;;;;8.38;3.20;;;;;;;;;;5026181;28;20025;-51
2022/06/30 03:28:32;;;;;;;8.20;3.45;;;;;;;;;;5026463;28;20429;-52
2022/06/30 03:30:59;;;;;;;6.53;3.38;;;;;;;;;;5026790;28;20040;-48
2022/06/30 03:33:25;;;;;;;14.48;3.33;;;;;;;;;;5027956;28;20068;-52
2022/06/30 03:35:51;;;;;;;8.20;3.03;;;;;;;;;;5027816;28;20430;-48
2022/06/30 03:38:17;;;;;;;10.95;3.05;;;;;;;;;;5026865;28;20104;-50
2022/06/30 03:40:43;;;;;;;8.80;3.25;;;;;;;;;;5027254;28;20056;-48
2022/06/30 03:43:09;;;;;;;11.40;3.38;;;;;;;;;;5025337;28;20064;-45
2022/06/30 03:45:35;;;;;;;11.25;3.83;;;;;;;;;;5028151;28;20049;-46
2022/06/30 03:48:02;;;;;;;8.13;3.03;;;;;;;;;;5025986;28;20104;-50
2022/06/30 03:50:28;;;;;;;9.30;3.00;;;;;;;;;;5023962;28;20064;-53
2022/06/30 03:52:54;;;;;;;6.10;3.17;;;;;;;;;;5024578;28;20120;-53
2022/06/30 03:55:20;;;;;;;8.18;2.95;;;;;;;;;;5027429;28;20109;-51
2022/06/30 03:57:46;;;;;;;15.18;4.05;;;;;;;;;;5028279;28;20061;-53
2022/06/30 04:00:12;;;;;;;8.88;3.45;;;;;;;;;;5027588;28;20067;-51
2022/06/30 04:02:37;;;;;;;6.85;3.10;;;;;;;;;;5026824;28;20493;-51
2022/06/30 04:05:05;;;;;;;12.48;3.25;;;;;;;;;;5025825;28;20037;-53
2022/06/30 04:07:30;;;;;;;8.70;3.28;;;;;;;;;;5025412;28;20107;-53
2022/06/30 04:09:56;;;;;;;5.85;2.88;;;;;;;;;;5026502;28;20490;-51
2022/06/30 04:12:22;;;;;;;6.55;3.08;;;;;;;;;;5027392;28;20448;-51
2022/06/30 04:14:51;;;;;;;11.80;3.33;;;;;;;;;;5024506;28;20037;-53
2022/06/30 04:17:18;;;;;;;6.57;3.00;;;;;;;;;;5025469;28;20033;-54
2022/06/30 04:19:43;;;;;;;8.38;3.08;;;;;;;;;;5023513;28;20059;-47
2022/06/30 04:22:10;;;;;;;9.32;3.25;;;;;;;;;;5025164;28;20045;-46
2022/06/30 04:24:35;;;;;;;9.80;3.50;;;;;;;;;;5026246;28;20470;-51
2022/06/30 04:27:01;;;;;;;7.72;3.30;;;;;;;;;;5026841;28;20036;-46
2022/06/30 04:29:27;;;;;;;5.15;2.80;;;;;;;;;;5024619;28;20030;-45
2022/06/30 04:34:36;;;;;;;9.52;3.30;;;;;;;;;;5023211;28;20111;-45
2022/06/30 04:37:02;;;;;;;7.70;3.20;;;;;;;;;;5026088;28;20483;-44
2022/06/30 04:39:28;;;;;;;11.23;3.20;;;;;;;;;;5028010;28;20052;-45
2022/06/30 04:41:54;;;;;;;10.75;3.40;;;;;;;;;;5025452;28;20021;-45
2022/06/30 04:44:19;;;;;;;10.38;3.20;;;;;;;;;;5023472;28;20492;-45
2022/06/30 04:46:45;;;;;;;7.07;2.83;;;;;;;;;;5020456;28;20091;-53
2022/06/30 04:49:11;;;;;;;5.28;2.70;;;;;;;;;;5024175;28;20029;-48
2022/06/30 04:51:36;;;;;;;18.15;3.05;;;;;;;;;;5026265;28;20048;-46
2022/06/30 04:54:02;;;;;;;7.40;3.20;;;;;;;;;;5024390;28;20044;-46
2022/06/30 04:56:28;;;;;;;13.88;3.17;;;;;;;;;;5025318;28;20035;-45
2022/06/30 04:58:53;;;;;;;8.32;3.38;;;;;;;;;;5026841;28;20057;-44
2022/06/30 05:01:19;;;;;;;12.60;3.72;;;;;;;;;;5026001;28;20470;-44
2022/06/30 05:03:45;;;;;;;11.35;3.20;;;;;;;;;;5023860;28;20025;-44
2022/06/30 05:06:10;;;;;;;15.55;3.83;;;;;;;;;;5026866;28;20115;-47
2022/06/30 05:08:36;;;;;;;17.50;4.13;;;;;;;;;;5025013;28;20035;-44
2022/06/30 05:11:02;;;;;;;5.75;2.85;;;;;;;;;;5023645;28;20044;-45
2022/06/30 05:13:28;;;;;;;7.80;2.90;;;;;;;;;;5024601;28;20029;-44
2022/06/30 05:15:54;;;;;;;11.23;3.67;;;;;;;;;;5025438;28;20021;-45
2022/06/30 05:18:19;;;;;;;7.35;2.75;;;;;;;;;;5027929;28;20040;-45
2022/06/30 05:20:45;;;;;;;6.40;3.28;;;;;;;;;;5022828;28;20029;-45
2022/06/30 05:23:11;;;;;;;6.20;2.97;;;;;;;;;;5025246;28;20028;-48
2022/06/30 05:28:21;;;;;;;10.40;3.10;;;;;;;;;;5025821;28;20047;-45
2022/06/30 05:30:48;;;;;;;7.15;2.78;;;;;;;;;;5023196;28;20083;-48
2022/06/30 05:33:14;;;;;;;5.65;3.08;;;;;;;;;;5024617;28;20036;-50
2022/06/30 05:35:40;;;;;;;7.13;2.78;;;;;;;;;;5026173;28;20022;-49
2022/06/30 05:38:06;;;;;;;10.95;3.35;;;;;;;;;;5023077;28;20448;-50
2022/06/30 05:40:32;;;;;;;7.32;2.95;;;;;;;;;;5022800;28;20056;-50
2022/06/30 05:42:58;;;;;;;10.30;2.80;;;;;;;;;;5025725;28;20048;-45
2022/06/30 05:45:23;;;;;;;5.30;2.63;;;;;;;;;;5025070;28;20021;-46
2022/06/30 05:47:51;;;;;;;7.03;2.70;;;;;;;;;;5024111;28;20029;-46
2022/06/30 05:50:18;;;;;;;13.70;2.50;;;;;;;;;;5025068;28;20022;-46
2022/06/30 05:52:44;;;;;;;7.82;3.10;;;;;;;;;;5018034;28;20038;-48
2022/06/30 05:55:10;;;;;;;13.75;2.72;;;;;;;;;;5018885;28;20036;-47
2022/06/30 05:58:13;;;;;;;9.73;2.83;;;;;;;;;;5016774;28;20072;-49
2022/06/30 06:00:39;;;;;;;5.43;2.60;;;;;;;;;;4997149;28;20042;-48
2022/06/30 06:03:04;;;;;;;11.00;2.90;;;;;;;;;;5001344;28;20479;-45
2022/06/30 06:05:30;;;;;;;11.75;2.92;;;;;;;;;;5002128;28;20054;-52
2022/06/30 06:08:03;;;;;;;8.88;2.83;;;;;;;;;;4998099;28;20049;-46
2022/06/30 06:10:29;;;;;;;10.77;3.05;;;;;;;;;;5002190;28;20487;-48
2022/06/30 06:12:55;;;;;;;9.25;2.80;;;;;;;;;;5001490;28;20030;-47
2022/06/30 06:15:21;;;;;;;12.27;3.00;;;;;;;;;;5000373;28;20052;-48
2022/06/30 06:17:47;;;;;;;8.57;2.67;;;;;;;;;;5001658;28;20064;-45
2022/06/30 06:20:15;;;;;;;6.07;2.55;;;;;;;;;;4999920;28;20494;-45
2022/06/30 06:22:41;;;;;;;9.93;2.80;;;;;;;;;;4997936;28;20042;-45
2022/06/30 06:25:08;;;;;;;8.98;3.25;;;;;;;;;;5001944;28;20047;-45
2022/06/30 06:27:34;;;;;;;6.18;2.50;;;;;;;;;;5004313;28;20505;-47
2022/06/30 06:30:05;;;;;;;8.60;3.00;;;;;;;;;;5002541;28;20034;-46
2022/06/30 06:32:31;;;;;;;7.38;2.50;;;;;;;;;;4996466;28;20034;-48
2022/06/30 06:34:58;;;;;;;9.10;2.90;;;;;;;;;;5015247;28;20046;-45
2022/06/30 06:37:24;;;;;;;12.43;3.22;;;;;;;;;;5022951;28;20060;-47
2022/06/30 06:39:50;;;;;;;9.90;2.63;;;;;;;;;;5025775;28;20052;-46
2022/06/30 06:42:16;;;;;;;7.68;2.15;;;;;;;;;;5024848;28;20496;-46
2022/06/30 06:44:41;;;;;;;6.68;2.88;;;;;;;;;;5026931;28;20029;-47
2022/06/30 06:47:08;;;;;;;11.77;2.30;;;;;;;;;;5023751;28;20108;-45
2022/06/30 06:49:33;;;;;;;7.03;2.28;;;;;;;;;;5026979;28;20026;-49
2022/06/30 06:51:59;;;;;;;9.23;2.35;;;;;;;;;;5022095;28;20049;-48
2022/06/30 06:54:24;;;;;;;11.48;2.00;;;;;;;;;;5029187;28;20029;-46
2022/06/30 06:56:50;;;;;;;6.75;2.10;;;;;;;;;;5027441;28;20033;-46
2022/06/30 06:59:16;;;;;;;15.35;2.65;;;;;;;;;;5028810;28;20504;-46
2022/06/30 07:01:42;;;;;;;8.18;2.40;;;;;;;;;;5028834;28;20433;-48
2022/06/30 07:04:08;;;;;;;5.53;2.45;;;;;;;;;;5024850;28;20022;-52
2022/06/30 07:06:34;;;;;;;5.10;1.90;;;;;;;;;;5026651;28;20095;-47
2022/06/30 07:09:00;;;;;;;9.73;1.98;;;;;;;;;;5027563;28;20092;-50
2022/06/30 07:11:26;;;;;;;5.10;2.40;;;;;;;;;;5023917;28;20104;-48
2022/06/30 07:13:52;;;;;;;4.13;1.92;;;;;;;;;;5026136;28;20112;-47
2022/06/30 07:16:18;;;;;;;9.23;1.95;;;;;;;;;;5028181;28;20026;-45
2022/06/30 07:18:44;;;;;;;6.25;2.25;;;;;;;;;;5026655;28;20500;-45
2022/06/30 07:21:09;;;;;;;3.90;1.70;;;;;;;;;;5028177;28;20120;-44
2022/06/30 07:23:35;;;;;;;13.27;2.10;;;;;;;;;;5028690;28;20100;-47
2022/06/30 07:26:00;;;;;;;10.23;2.13;;;;;;;;;;5028010;28;20116;-47
2022/06/30 07:28:27;;;;;;;3.78;1.75;;;;;;;;;;5024745;28;20410;-45
2022/06/30 07:30:52;;;;;;;5.18;2.15;;;;;;;;;;5027701;28;20029;-46
2022/06/30 07:33:18;;;;;;;14.07;2.35;;;;;;;;;;5028824;28;20108;-46
2022/06/30 07:35:45;;;;;;;8.90;2.10;;;;;;;;;;5027561;28;20746;-47
2022/06/30 07:38:10;;;;;;;6.13;2.00;;;;;;;;;;5027304;28;20033;-48
2022/06/30 07:40:36;;;;;;;6.25;2.33;;;;;;;;;;5027570;28;20024;-47
2022/06/30 07:43:02;;;;;;;8.80;2.60;;;;;;;;;;5026211;28;20482;-45
2022/06/30 07:45:29;;;;;;;12.27;2.40;;;;;;;;;;5029024;28;20026;-45
2022/06/30 07:47:54;;;;;;;13.70;2.88;;;;;;;;;;5027480;28;20403;-46
2022/06/30 07:50:20;;;;;;;11.13;2.55;;;;;;;;;;5025781;28;20084;-45
2022/06/30 07:52:46;;;;;;;12.43;2.92;;;;;;;;;;5027803;28;20049;-47
2022/06/30 07:55:13;;;;;;;10.27;3.00;;;;;;;;;;5025969;28;20359;-49
2022/06/30 07:57:45;;;;;;;11.30;2.40;;;;;;;;;;5029541;28;20116;-45
2022/06/30 08:00:11;;;;;;;8.88;2.15;;;;;;;;;;5028230;28;20037;-47
2022/06/30 08:02:38;;;;;;;16.27;2.53;;;;;;;;;;5025458;28;20033;-50
2022/06/30 08:05:04;;;;;;;7.60;2.20;;;;;;;;;;5026203;28;20095;-45
2022/06/30 08:07:30;;;;;;;9.70;2.55;;;;;;;;;;5026091;28;20603;-47
2022/06/30 08:09:56;;;;;;;10.07;2.40;;;;;;;;;;5023820;28;20032;-48
2022/06/30 08:12:22;;;;;;;8.90;2.50;;;;;;;;;;5029641;28;20037;-46
2022/06/30 08:14:47;;;;;;;7.88;2.53;;;;;;;;;;5028015;28;20371;-45
2022/06/30 08:17:13;;;;;;;4.82;2.42;;;;;;;;;;5026864;28;20041;-49
2022/06/30 08:19:41;;;;;;;16.30;3.35;;;;;;;;;;5025759;28;20025;-49
2022/06/30 08:22:07;;;;;;;12.02;3.28;;;;;;;;;;5026723;28;20132;-49
2022/06/30 08:24:34;;;;;;;10.07;3.03;;;;;;;;;;5027616;28;20126;-47
2022/06/30 08:27:02;;;;;;;11.63;3.08;;;;;;;;;;5026386;28;20057;-45
2022/06/30 08:29:32;;;;;;;9.65;3.08;;;;;;;;;;5025273;28;20112;-45
2022/06/30 08:32:00;;;;;;;10.23;3.22;;;;;;;;;;5023392;28;20049;-47
2022/06/30 08:34:26;;;;;;;9.77;3.20;;;;;;;;;;5024367;28;20041;-45
2022/06/30 08:36:52;;;;;;;13.82;3.33;;;;;;;;;;5025916;28;20054;-45
2022/06/30 08:42:03;;;;;;;9.50;3.60;;;;;;;;;;5022315;28;20056;-45
2022/06/30 08:44:41;;;;;;;9.13;2.90;;;;;;;;;;5025487;28;20054;-46
2022/06/30 08:47:08;;;;;;;12.57;3.05;;;;;;;;;;5024603;28;20033;-47
2022/06/30 08:49:34;;;;;;;8.10;2.65;;;;;;;;;;5024968;28;20478;-45
2022/06/30 08:52:01;;;;;;;10.88;2.75;;;;;;;;;;5025572;28;20246;-45
2022/06/30 08:54:28;;;;;;;10.65;2.95;;;;;;;;;;5028708;28;20064;-45
2022/06/30 08:56:56;;;;;;;5.35;2.20;;;;;;;;;;5024244;28;20056;-45
2022/06/30 08:59:24;;;;;;;7.75;2.83;;;;;;;;;;5025113;28;20044;-50
2022/06/30 09:01:50;;;;;;;7.55;2.63;;;;;;;;;;5024365;28;20036;-44
2022/06/30 09:04:16;;;;;;;19.10;2.72;;;;;;;;;;5025210;28;20076;-47
2022/06/30 09:06:45;;;;;;;10.77;2.70;;;;;;;;;;5025974;28;20029;-46
2022/06/30 09:09:11;;;;;;;5.60;2.50;;;;;;;;;;5027186;28;20033;-48
2022/06/30 09:12:12;;;;;;;10.40;2.47;;;;;;;;;;5026306;28;20037;-47
2022/06/30 09:14:48;;;;;;;7.55;2.63;;;;;;;;;;5022322;28;20029;-48
2022/06/30 09:17:22;;;;;;;13.15;3.05;;;;;;;;;;5024333;28;20084;-48
2022/06/30 09:20:12;;;;;;;6.53;2.13;;;;;;;;;;5024411;28;20053;-46
2022/06/30 09:22:39;;;;;;;9.07;2.70;;;;;;;;;;5024074;28;20075;-46
2022/06/30 09:25:09;;;;;;;8.32;2.72;;;;;;;;;;5024815;28;20080;-46
2022/06/30 09:27:40;;;;;;;7.57;2.75;;;;;;;;;;5027343;28;20031;-48
2022/06/30 09:30:14;;;;;;;4.82;1.92;;;;;;;;;;5024324;28;20108;-43
2022/06/30 09:32:57;;;;;;;7.65;2.15;;;;;;;;;;5022887;28;20041;-44
2022/06/30 09:35:26;;;;;;;6.07;2.28;;;;;;;;;;5024959;28;20033;-43
2022/06/30 09:38:09;;;;;;;14.25;2.78;;;;;;;;;;5025390;28;20588;-46
2022/06/30 09:40:37;;;;;;;6.93;2.58;;;;;;;;;;5025698;28;20038;-48
2022/06/30 09:43:05;;;;;;;7.97;2.65;;;;;;;;;;5024068;28;20030;-48
2022/06/30 09:45:34;;;;;;;10.80;2.38;;;;;;;;;;5026589;28;20494;-51
2022/06/30 09:48:00;;;;;;;2.78;1.92;;;;;;;;;;5025314;28;20112;-46
2022/06/30 09:50:26;;;;;;;7.25;2.00;;;;;;;;;;5023681;28;20021;-48
2022/06/30 09:53:28;;;;;;;5.22;2.00;;;;;;;;;;5026382;28;20037;-45
2022/06/30 09:55:54;;;;;;;8.38;1.95;;;;;;;;;;4998691;28;20050;-46
2022/06/30 09:58:28;;;;;;;10.07;2.35;;;;;;;;;;5002451;28;20509;-48
2022/06/30 10:00:54;;;;;;;11.13;2.20;;;;;;;;;;5002622;28;20112;-45
2022/06/30 10:03:20;;;;;;;5.32;2.38;;;;;;;;;;5005862;28;20456;-46
2022/06/30 10:05:51;;;;;;;9.55;2.83;;;;;;;;;;4985018;28;20581;-46
2022/06/30 10:08:18;;;;;;;5.40;2.28;;;;;;;;;;4987394;28;20025;-47
2022/06/30 10:10:45;;;;;;;8.57;2.40;;;;;;;;;;5006692;28;20030;-48
2022/06/30 10:13:17;;;;;;;6.75;2.50;;;;;;;;;;5005615;28;20150;-48
2022/06/30 10:15:47;;;;;;;6.35;2.10;;;;;;;;;;5003179;28;20123;-47
2022/06/30 10:18:14;;;;;;;10.35;2.35;;;;;;;;;;5007866;28;20156;-48
2022/06/30 10:20:40;;;;;;;7.50;2.10;;;;;;;;;;5005146;28;20444;-46
2022/06/30 10:23:08;;;;;;;10.68;2.55;;;;;;;;;;5003169;28;22435;-49
2022/06/30 10:25:35;;;;;;;7.13;2.17;;;;;;;;;;5002957;28;20033;-46
2022/06/30 10:28:01;;;;;;;8.77;2.10;;;;;;;;;;5005530;28;20037;-46
2022/06/30 10:30:40;;;;;;;6.80;2.70;;;;;;;;;;5026041;28;20030;-45
2022/06/30 10:33:22;;;;;;;6.82;2.28;;;;;;;;;;5029422;28;20033;-47
2022/06/30 10:35:58;;;;;;;5.93;2.03;;;;;;;;;;5024625;28;20103;-47
2022/06/30 10:38:39;;;;;;;5.90;2.13;;;;;;;;;;5024328;28;20041;-48
2022/06/30 10:41:14;;;;;;;8.40;1.98;;;;;;;;;;5027237;28;20064;-45
2022/06/30 10:44:05;;;;;;;3.20;1.77;;;;;;;;;;5026179;28;20029;-51
2022/06/30 10:46:36;;;;;;;3.97;1.98;;;;;;;;;;5027396;28;20075;-45
2022/06/30 10:49:09;;;;;;;2.65;1.88;;;;;;;;;;5026825;28;20044;-48
2022/06/30 10:51:35;;;;;;;4.40;2.05;;;;;;;;;;5029893;28;20040;-47
2022/06/30 10:54:00;;;;;;;3.30;1.73;;;;;;;;;;5024815;28;20030;-49
2022/06/30 10:56:54;;;;;;;9.85;1.85;;;;;;;;;;5023991;28;20025;-46
2022/06/30 10:59:30;;;;;;;6.25;1.80;;;;;;;;;;5023780;28;20076;-46
2022/06/30 11:02:08;;;;;;;9.23;1.95;;;;;;;;;;5025700;28;20091;-47
2022/06/30 11:04:38;;;;;;;7.00;1.90;;;;;;;;;;5028519;28;20042;-49
2022/06/30 11:07:09;;;;;;;5.90;2.35;;;;;;;;;;5026448;28;20069;-46
2022/06/30 11:09:58;;;;;;;5.85;1.83;;;;;;;;;;5028004;28;20034;-46
2022/06/30 11:12:31;;;;;;;4.95;1.90;;;;;;;;;;5020873;28;20046;-46
2022/06/30 11:14:58;;;;;;;3.85;1.50;;;;;;;;;;5027253;28;20398;-48
2022/06/30 11:17:26;;;;;;;5.85;2.60;;;;;;;;;;5024952;28;20057;-46
2022/06/30 11:20:06;;;;;;;4.40;2.00;;;;;;;;;;5026143;28;20037;-47
2022/06/30 11:22:32;;;;;;;12.45;2.28;;;;;;;;;;5023722;28;20030;-47
2022/06/30 11:25:07;;;;;;;5.07;2.20;;;;;;;;;;5024751;28;20033;-46
2022/06/30 11:27:36;;;;;;;6.50;2.20;;;;;;;;;;5029100;28;20037;-46
2022/06/30 11:30:08;;;;;;;5.03;2.05;;;;;;;;;;5026937;28;20051;-45
2022/06/30 11:32:35;;;;;;;6.43;2.33;;;;;;;;;;5022959;28;20021;-47
2022/06/30 11:35:01;;;;;;;4.90;1.92;;;;;;;;;;5027601;28;20037;-50
2022/06/30 11:37:30;;;;;;;9.02;2.05;;;;;;;;;;5026606;28;20037;-50
2022/06/30 11:40:09;;;;;;;5.68;1.95;;;;;;;;;;5026219;28;20041;-52
2022/06/30 11:42:35;;;;;;;7.00;2.40;;;;;;;;;;5028087;28;20026;-49
2022/06/30 11:45:02;;;;;;;6.28;1.73;;;;;;;;;;5027102;28;20025;-48
2022/06/30 11:47:28;;;;;;;3.88;1.90;;;;;;;;;;5023705;28;20037;-46
2022/06/30 11:49:57;;;;;;;6.03;2.00;;;;;;;;;;5027095;28;20033;-51
2022/06/30 11:52:28;;;;;;;5.25;1.77;;;;;;;;;;5026990;28;20037;-47
2022/06/30 11:54:56;;;;;;;5.47;2.25;;;;;;;;;;5023460;28;20490;-45
2022/06/30 11:57:23;;;;;;;4.57;1.80;;;;;;;;;;5025487;28;20044;-50
2022/06/30 11:59:51;;;;;;;6.07;1.85;;;;;;;;;;5024902;28;20033;-50
2022/06/30 12:02:18;;;;;;;3.17;1.60;;;;;;;;;;5024595;28;20662;-46
2022/06/30 12:04:45;;;;;;;4.93;1.65;;;;;;;;;;5026148;28;20145;-47
2022/06/30 12:07:13;;;;;;;9.80;1.80;;;;;;;;;;5026353;28;20481;-53
2022/06/30 12:09:42;;;;;;;11.30;1.90;;;;;;;;;;5025208;28;20060;-51
2022/06/30 12:12:09;;;;;;;5.88;1.83;;;;;;;;;;5023272;28;20033;-52
2022/06/30 12:14:38;;;;;;;8.63;1.80;;;;;;;;;;5025656;28;20043;-46
2022/06/30 12:17:09;;;;;;;2.42;1.52;;;;;;;;;;5024448;28;20386;-50
2022/06/30 12:19:36;;;;;;;12.82;1.80;;;;;;;;;;5027648;28;20108;-47
2022/06/30 12:22:04;;;;;;;5.20;1.70;;;;;;;;;;5025228;28;20124;-46
2022/06/30 12:24:30;;;;;;;5.88;1.63;;;;;;;;;;5027158;28;20064;-44
2022/06/30 12:26:58;;;;;;;5.45;1.58;;;;;;;;;;5026675;28;20044;-47
2022/06/30 12:29:26;;;;;;;3.83;1.42;;;;;;;;;;5021577;28;20079;-47
2022/06/30 12:32:04;;;;;;;5.60;1.60;;;;;;;;;;5025178;28;20669;-49
2022/06/30 12:34:31;;;;;;;6.53;2.03;;;;;;;;;;5021976;28;20113;-50
2022/06/30 12:37:02;;;;;;;2.80;1.83;;;;;;;;;;5022148;28;20028;-49
2022/06/30 12:39:30;;;;;;;2.43;1.47;;;;;;;;;;5029683;28;20021;-49
2022/06/30 12:42:04;;;;;;;13.40;2.17;;;;;;;;;;5024736;28;20536;-47
2022/06/30 12:44:32;;;;;;;3.50;2.13;;;;;;;;;;5025968;28;20033;-52
2022/06/30 12:47:09;;;;;;;5.85;1.98;;;;;;;;;;5025767;28;20795;-48
2022/06/30 12:49:36;;;;;;;5.15;1.60;;;;;;;;;;5028244;28;20033;-50
2022/06/30 12:52:16;;;;;;;7.80;1.90;;;;;;;;;;5025334;28;20072;-46
2022/06/30 12:54:57;;;;;;;5.90;1.98;;;;;;;;;;5024570;28;20058;-52
2022/06/30 12:57:25;;;;;;;4.55;1.83;;;;;;;;;;5027431;28;20125;-51
2022/06/30 12:59:53;;;;;;;4.20;1.73;;;;;;;;;;5024465;28;20048;-49
2022/06/30 13:02:20;;;;;;;4.38;1.88;;;;;;;;;;5025696;28;20073;-52
2022/06/30 13:04:56;;;;;;;4.00;1.80;;;;;;;;;;5024863;28;20037;-47
2022/06/30 13:07:22;;;;;;;6.05;1.80;;;;;;;;;;5027565;28;20029;-49
2022/06/30 13:09:49;;;;;;;5.57;2.28;;;;;;;;;;5026737;28;20033;-49
2022/06/30 13:12:16;;;;;;;4.55;2.10;;;;;;;;;;5027310;28;20029;-48
2022/06/30 13:14:43;;;;;;;7.18;2.40;;;;;;;;;;5024177;28;20112;-50
2022/06/30 13:17:10;;;;;;;8.35;2.17;;;;;;;;;;5025064;28;20026;-48
2022/06/30 13:19:37;;;;;;;7.70;2.40;;;;;;;;;;5017024;28;20095;-48
2022/06/30 13:22:04;;;;;;;5.38;2.20;;;;;;;;;;5020505;28;20071;-48
2022/06/30 13:24:30;;;;;;;11.05;2.50;;;;;;;;;;5020782;28;20560;-50
2022/06/30 13:27:02;;;;;;;14.50;2.95;;;;;;;;;;5021047;28;20041;-48
2022/06/30 13:29:30;;;;;;;8.07;2.40;;;;;;;;;;5037654;28;20026;-49
2022/06/30 13:31:56;;;;;;;8.80;2.50;;;;;;;;;;5026948;28;20038;-45
2022/06/30 13:34:22;;;;;;;5.32;2.20;;;;;;;;;;5027421;28;20025;-46
2022/06/30 13:36:48;;;;;;;6.57;2.10;;;;;;;;;;5027469;28;20044;-49
2022/06/30 13:39:15;;;;;;;6.72;2.45;;;;;;;;;;5025184;28;20026;-50
2022/06/30 13:41:42;;;;;;;12.23;2.50;;;;;;;;;;5025420;28;20029;-43
2022/06/30 13:44:08;;;;;;;4.90;2.03;;;;;;;;;;5027461;28;20053;-44
2022/06/30 13:46:34;;;;;;;7.40;2.28;;;;;;;;;;5029500;28;20060;-47
2022/06/30 13:49:00;;;;;;;11.63;2.72;;;;;;;;;;5029536;28;20048;-47
2022/06/30 13:51:26;;;;;;;8.07;2.58;;;;;;;;;;5029943;28;20029;-44
2022/06/30 13:53:52;;;;;;;6.55;2.67;;;;;;;;;;5043017;28;20032;-45
2022/06/30 13:56:18;;;;;;;10.45;2.60;;;;;;;;;;5028588;28;20025;-47
2022/06/30 13:58:44;;;;;;;3.78;2.30;;;;;;;;;;5028753;28;20038;-46
2022/06/30 14:01:10;;;;;;;6.13;2.15;;;;;;;;;;5029372;28;20104;-50
2022/06/30 14:03:37;;;;;;;4.88;2.08;;;;;;;;;;5029822;28;20025;-48
2022/06/30 14:06:03;;;;;;;4.55;1.90;;;;;;;;;;5029808;28;20037;-48
2022/06/30 14:08:30;;;;;;;6.53;2.22;;;;;;;;;;5028973;28;20486;-54
2022/06/30 14:10:56;;;;;;;10.00;2.28;;;;;;;;;;5028899;28;20112;-54
2022/06/30 14:13:22;;;;;;;9.50;2.97;;;;;;;;;;5028120;28;20554;-51
2022/06/30 14:15:48;;;;;;;9.27;2.28;;;;;;;;;;5030493;28;20033;-49
2022/06/30 14:18:13;;;;;;;6.20;2.30;;;;;;;;;;5030663;28;20037;-48
2022/06/30 14:20:39;;;;;;;6.35;2.45;;;;;;;;;;5028002;28;20502;-47
2022/06/30 14:23:05;;;;;;;10.25;2.35;;;;;;;;;;5029815;28;20044;-48
2022/06/30 14:25:31;;;;;;;6.45;2.55;;;;;;;;;;5028769;28;20029;-49
2022/06/30 14:27:57;;;;;;;9.13;2.95;;;;;;;;;;5029946;28;20025;-48
2022/06/30 14:30:23;;;;;;;9.85;2.60;;;;;;;;;;5030258;28;20036;-49
2022/06/30 14:32:49;;;;;;;9.73;2.50;;;;;;;;;;5027982;28;20105;-52
2022/06/30 14:35:14;;;;;;;7.85;2.83;;;;;;;;;;5027528;28;20037;-48
2022/06/30 14:37:40;;;;;;;7.88;2.67;;;;;;;;;;5027052;28;20060;-50
2022/06/30 14:40:10;;;;;;;7.05;2.63;;;;;;;;;;5027981;28;20541;-45
2022/06/30 14:42:43;;;;;;;11.52;2.80;;;;;;;;;;5030434;28;20025;-48
2022/06/30 14:45:11;;;;;;;6.72;2.50;;;;;;;;;;5027922;28;20026;-46
2022/06/30 14:47:37;;;;;;;7.55;2.38;;;;;;;;;;5028173;28;20079;-48
2022/06/30 14:50:04;;;;;;;5.18;2.65;;;;;;;;;;5028438;28;20037;-46
2022/06/30 14:52:31;;;;;;;4.45;2.38;;;;;;;;;;5021682;28;20045;-47